Time;durP1;ratioP1;P1;durP2;ratioP2;P2;SDS_P1;SDS_P2;PMS_P1;PMS_P2;Temp;Humidity;BMP_temperature;BMP_pressure;BME280_temperature;BME280_humidity;BME280_pressure;Samples;Min_cycle;Max_cycle;Signal;HPM_P1;HPM_P2
2022/06/25 00:00:08;;;;;;;2.27;0.42;;;20.50;99.90;;;;;;1900829;74;21131;-87
2022/06/25 00:02:59;;;;;;;2.70;0.60;;;20.40;99.90;;;;;;1922431;74;21121;-87
2022/06/25 00:05:51;;;;;;;1.05;0.50;;;20.40;99.90;;;;;;1846350;77;21128;-87
2022/06/25 00:08:44;;;;;;;2.65;0.57;;;20.50;99.90;;;;;;1919099;74;21097;-88
2022/06/25 00:14:44;;;;;;;1.55;0.50;;;20.30;99.90;;;;;;1920380;74;21583;-87
2022/06/25 00:17:36;;;;;;;3.27;0.40;;;20.20;99.90;;;;;;1846332;77;21112;-87
2022/06/25 00:20:28;;;;;;;0.50;0.35;;;20.20;99.90;;;;;;1924838;74;21109;-87
2022/06/25 00:23:20;;;;;;;2.70;0.50;;;20.00;99.90;;;;;;1933191;74;21086;-87
2022/06/25 00:26:11;;;;;;;1.27;0.40;;;20.00;99.90;;;;;;1914437;74;21073;-87
2022/06/25 00:29:03;;;;;;;1.52;0.50;;;19.90;99.90;;;;;;1910959;74;21155;-87
2022/06/25 00:31:54;;;;;;;3.60;0.60;;;19.90;99.90;;;;;;1910736;74;21124;-87
2022/06/25 00:34:46;;;;;;;2.42;0.50;;;19.90;99.90;;;;;;1912274;74;21614;-87
2022/06/25 00:37:38;;;;;;;3.55;0.50;;;19.80;99.90;;;;;;1916324;74;21114;-87
2022/06/25 00:40:30;;;;;;;2.90;0.50;;;19.80;99.90;;;;;;1910806;74;21062;-87
2022/06/25 00:43:22;;;;;;;2.02;0.60;;;19.90;99.90;;;;;;1905728;74;21132;-87
2022/06/25 00:46:13;;;;;;;0.75;0.50;;;19.90;99.90;;;;;;1846662;77;21184;-87
2022/06/25 00:49:06;;;;;;;1.20;0.70;;;19.80;99.90;;;;;;1916214;74;21094;-88
2022/06/25 00:52:00;;;;;;;2.05;0.60;;;19.70;99.90;;;;;;1826432;77;21112;-87
2022/06/25 00:54:54;;;;;;;1.35;0.78;;;19.60;99.90;;;;;;1907785;74;21049;-87
2022/06/25 00:57:46;;;;;;;2.45;0.70;;;19.60;99.90;;;;;;1908777;74;21220;-87
2022/06/25 01:00:39;;;;;;;1.37;0.40;;;19.70;99.90;;;;;;1919824;74;21101;-87
2022/06/25 01:03:31;;;;;;;1.17;0.53;;;19.60;99.90;;;;;;1843200;77;21084;-87
2022/06/25 01:06:23;;;;;;;1.57;0.53;;;19.60;99.90;;;;;;1899876;75;21101;-87
2022/06/25 01:09:16;;;;;;;1.55;0.75;;;19.70;99.90;;;;;;1922106;74;21058;-87
2022/06/25 01:12:09;;;;;;;1.47;0.65;;;19.70;99.90;;;;;;1920962;74;21086;-87
2022/06/25 01:15:07;;;;;;;0.80;0.47;;;19.70;99.90;;;;;;1916852;74;21214;-87
2022/06/25 01:18:00;;;;;;;1.05;0.55;;;19.60;99.90;;;;;;1912870;74;21098;-87
2022/06/25 01:20:53;;;;;;;1.67;0.50;;;19.60;99.90;;;;;;1910926;74;21144;-87
2022/06/25 01:23:45;;;;;;;2.17;0.55;;;19.50;99.90;;;;;;1930116;74;21043;-87
2022/06/25 01:26:39;;;;;;;4.05;0.70;;;19.50;99.90;;;;;;1840377;77;21082;-87
2022/06/25 01:29:31;;;;;;;2.40;0.70;;;19.50;99.90;;;;;;1901854;75;21141;-85
2022/06/25 01:32:23;;;;;;;1.22;0.60;;;19.40;99.90;;;;;;1883385;76;21201;-85
2022/06/25 01:35:15;;;;;;;1.52;0.70;;;19.30;99.90;;;;;;1884685;76;21066;-85
2022/06/25 01:38:07;;;;;;;1.55;0.70;;;19.30;99.90;;;;;;1906226;75;21125;-85
2022/06/25 01:40:58;;;;;;;1.67;0.70;;;19.20;99.90;;;;;;1900312;75;21102;-85
2022/06/25 01:43:50;;;;;;;3.80;0.70;;;19.20;99.90;;;;;;1896047;75;21168;-85
2022/06/25 01:46:41;;;;;;;1.75;0.50;;;19.20;99.90;;;;;;1895087;75;21059;-85
2022/06/25 01:49:34;;;;;;;1.65;0.50;;;19.20;99.90;;;;;;1894967;75;21054;-85
2022/06/25 01:52:26;;;;;;;2.40;0.70;;;19.20;99.90;;;;;;1899384;75;21608;-85
2022/06/25 01:55:19;;;;;;;2.05;0.60;;;19.20;99.90;;;;;;1897423;75;21043;-85
2022/06/25 01:58:11;;;;;;;0.55;0.40;;;19.20;99.90;;;;;;1895059;75;21055;-86
2022/06/25 02:01:03;;;;;;;2.15;0.60;;;19.10;99.90;;;;;;1894691;75;21063;-86
2022/06/25 02:03:55;;;;;;;1.32;0.60;;;19.10;99.90;;;;;;1911943;75;21169;-86
2022/06/25 02:06:47;;;;;;;1.27;0.40;;;19.00;99.90;;;;;;1898861;75;21137;-86
2022/06/25 02:09:38;;;;;;;1.20;0.60;;;19.00;99.90;;;;;;1895538;75;21084;-86
2022/06/25 02:12:30;;;;;;;1.20;0.50;;;19.00;99.90;;;;;;1895079;75;21167;-86
2022/06/25 02:15:21;;;;;;;2.22;0.55;;;19.10;99.90;;;;;;1895833;75;21180;-86
2022/06/25 02:18:13;;;;;;;1.82;0.47;;;19.00;99.90;;;;;;1900133;75;21048;-86
2022/06/25 02:21:05;;;;;;;2.33;0.40;;;19.00;99.90;;;;;;1895278;75;21085;-86
2022/06/25 02:23:57;;;;;;;1.52;0.50;;;19.10;99.90;;;;;;1889538;75;21159;-86
2022/06/25 02:26:48;;;;;;;0.72;0.50;;;19.10;99.90;;;;;;1906966;74;21098;-86
2022/06/25 02:29:40;;;;;;;1.25;0.60;;;19.10;99.90;;;;;;1911373;74;21172;-86
2022/06/25 02:32:33;;;;;;;0.93;0.65;;;19.10;99.90;;;;;;1906064;74;21604;-86
2022/06/25 02:35:25;;;;;;;1.67;0.50;;;19.10;99.90;;;;;;1919373;74;21150;-85
2022/06/25 02:38:16;;;;;;;0.78;0.40;;;19.10;99.90;;;;;;1915781;74;21113;-86
2022/06/25 02:41:10;;;;;;;3.20;0.60;;;19.10;99.90;;;;;;1912926;74;21591;-86
2022/06/25 02:44:01;;;;;;;5.10;0.70;;;19.10;99.90;;;;;;1913142;74;21141;-86
2022/06/25 02:47:00;;;;;;;1.32;0.53;;;19.00;99.90;;;;;;1897681;74;21088;-85
2022/06/25 02:49:54;;;;;;;1.20;0.75;;;18.90;99.90;;;;;;1904359;74;21173;-85
2022/06/25 02:52:45;;;;;;;1.85;0.50;;;18.90;99.90;;;;;;1904932;74;21098;-85
2022/06/25 02:58:55;;;;;;;1.50;0.60;;;18.70;99.90;;;;;;1910517;74;21039;-85
2022/06/25 03:01:55;;;;;;;2.12;1.30;;;18.70;99.90;;;;;;1907518;74;21136;-86
2022/06/25 03:04:46;;;;;;;2.22;0.78;;;18.60;99.90;;;;;;1926741;74;21051;-85
2022/06/25 03:07:39;;;;;;;1.75;0.80;;;18.60;99.90;;;;;;1904573;74;21101;-85
2022/06/25 03:10:31;;;;;;;1.32;0.70;;;18.60;99.90;;;;;;1905332;74;21123;-86
2022/06/25 03:13:23;;;;;;;1.25;0.85;;;18.60;99.90;;;;;;1909932;74;21139;-86
2022/06/25 03:16:14;;;;;;;1.70;0.47;;;18.50;99.90;;;;;;1904584;74;21050;-85
2022/06/25 03:19:06;;;;;;;4.30;0.57;;;18.50;99.90;;;;;;1904533;74;21099;-85
2022/06/25 03:22:02;;;;;;;1.77;0.55;;;18.50;99.90;;;;;;1892073;74;21551;-85
2022/06/25 03:24:54;;;;;;;2.15;0.68;;;18.50;99.90;;;;;;1913333;74;21194;-85
2022/06/25 03:27:46;;;;;;;1.20;0.70;;;18.50;99.90;;;;;;1906024;74;21155;-85
2022/06/25 03:30:38;;;;;;;3.10;0.80;;;18.50;99.90;;;;;;1897176;74;21054;-85
2022/06/25 03:33:30;;;;;;;2.00;0.85;;;18.50;99.90;;;;;;1908375;74;21042;-85
2022/06/25 03:36:24;;;;;;;3.58;1.02;;;18.50;99.90;;;;;;1926659;74;21591;-85
2022/06/25 03:39:18;;;;;;;3.62;3.30;;;18.50;99.90;;;;;;1911151;74;21110;-85
2022/06/25 03:42:10;;;;;;;5.40;2.70;;;18.50;99.90;;;;;;1915642;74;21058;-85
2022/06/25 03:45:04;;;;;;;3.67;2.22;;;18.50;99.90;;;;;;1915934;74;21132;-85
2022/06/25 03:47:57;;;;;;;22.60;14.93;;;18.50;99.90;;;;;;1915568;74;21055;-85
2022/06/25 03:50:49;;;;;;;18.20;9.23;;;18.50;99.90;;;;;;1911198;74;21090;-85
2022/06/25 03:53:41;;;;;;;7.72;4.90;;;18.50;99.90;;;;;;1893682;76;21101;-84
2022/06/25 03:56:32;;;;;;;7.60;3.72;;;18.60;99.90;;;;;;1922398;74;21086;-85
2022/06/25 04:02:05;;;;;;;4.72;3.33;;;18.50;99.90;;;;;;1960449;72;22542;-85
2022/06/25 04:05:16;;;;;;;5.60;1.87;;;18.50;99.90;;;;;;1905416;75;21106;-85
2022/06/25 04:08:28;;;;;;;2.75;1.07;;;18.60;99.90;;;;;;1920740;74;21044;-85
2022/06/25 04:11:20;;;;;;;2.42;1.30;;;18.50;99.90;;;;;;1906395;74;21052;-85
2022/06/25 04:14:31;;;;;;;2.52;1.32;;;18.40;99.90;;;;;;1914555;74;21478;-85
2022/06/25 04:17:23;;;;;;;2.98;0.98;;;18.30;99.90;;;;;;1912618;74;21102;-85
2022/06/25 04:20:15;;;;;;;2.05;0.70;;;18.30;99.90;;;;;;1905756;75;21051;-85
2022/06/25 04:23:07;;;;;;;1.57;0.57;;;18.30;99.90;;;;;;1905646;75;21173;-85
2022/06/25 04:25:58;;;;;;;2.08;0.60;;;18.30;99.90;;;;;;1904889;75;21163;-85
2022/06/25 04:29:08;;;;;;;2.65;0.60;;;18.30;99.90;;;;;;1910519;74;21159;-85
2022/06/25 04:32:03;;;;;;;2.33;0.60;;;18.30;99.90;;;;;;1897463;74;21173;-86
2022/06/25 04:35:13;;;;;;;1.55;0.53;;;18.40;99.90;;;;;;1905419;75;21074;-86
2022/06/25 04:38:05;;;;;;;3.10;0.90;;;18.40;99.90;;;;;;1905459;75;21056;-86
2022/06/25 04:40:56;;;;;;;0.90;0.42;;;18.50;99.90;;;;;;1883150;75;21124;-85
2022/06/25 04:43:48;;;;;;;3.37;0.70;;;18.40;99.90;;;;;;1905395;74;21098;-85
2022/06/25 04:46:43;;;;;;;1.20;0.70;;;18.50;99.90;;;;;;1928288;74;21219;-85
2022/06/25 04:49:37;;;;;;;0.68;0.50;;;18.50;99.90;;;;;;1884637;75;21114;-86
2022/06/25 04:52:29;;;;;;;1.37;0.60;;;18.60;99.90;;;;;;1905597;75;21043;-87
2022/06/25 04:55:20;;;;;;;3.15;0.80;;;18.60;99.90;;;;;;1905553;75;21083;-86
2022/06/25 04:58:12;;;;;;;6.10;0.70;;;18.60;99.90;;;;;;1905117;75;21113;-86
2022/06/25 05:01:05;;;;;;;0.82;0.70;;;18.60;99.90;;;;;;1896126;74;21180;-85
2022/06/25 05:03:57;;;;;;;1.82;0.70;;;18.60;99.90;;;;;;1939017;74;21052;-85
2022/06/25 05:06:49;;;;;;;2.42;0.80;;;18.60;99.90;;;;;;1905570;75;21546;-86
2022/06/25 05:09:42;;;;;;;1.67;0.90;;;18.60;99.90;;;;;;1928199;74;21060;-85
2022/06/25 05:15:44;;;;;;;2.50;0.85;;;18.60;99.90;;;;;;1926730;74;21102;-86
2022/06/25 05:18:36;;;;;;;2.80;0.60;;;18.60;99.90;;;;;;1926036;74;21048;-87
2022/06/25 05:21:29;;;;;;;4.80;0.80;;;18.60;99.90;;;;;;1938322;74;21067;-86
2022/06/25 05:24:21;;;;;;;1.62;0.60;;;18.70;99.90;;;;;;1927883;74;21088;-86
2022/06/25 05:27:12;;;;;;;0.90;0.75;;;18.70;99.90;;;;;;1904874;75;21051;-86
2022/06/25 05:30:04;;;;;;;1.77;0.80;;;18.60;99.90;;;;;;1904749;75;21043;-85
2022/06/25 05:32:56;;;;;;;2.52;0.75;;;18.50;99.90;;;;;;1904761;75;21115;-87
2022/06/25 05:35:48;;;;;;;1.22;0.70;;;18.60;99.90;;;;;;1904742;75;21635;-86
2022/06/25 05:38:40;;;;;;;3.08;0.70;;;18.60;99.90;;;;;;1904681;75;21167;-86
2022/06/25 05:41:32;;;;;;;1.72;0.70;;;18.70;99.90;;;;;;1904733;75;21048;-85
2022/06/25 05:44:24;;;;;;;2.12;0.80;;;18.80;99.90;;;;;;1904842;75;21107;-85
2022/06/25 05:47:16;;;;;;;2.00;0.75;;;18.80;99.90;;;;;;1917931;74;21115;-85
2022/06/25 05:50:10;;;;;;;1.95;0.60;;;18.80;99.90;;;;;;1916161;74;21091;-87
2022/06/25 05:53:01;;;;;;;2.22;0.50;;;19.00;99.90;;;;;;1916143;74;21167;-88
2022/06/25 05:55:54;;;;;;;1.67;0.68;;;19.10;99.90;;;;;;1917954;74;21065;-87
2022/06/25 05:58:46;;;;;;;3.35;0.60;;;19.20;99.90;;;;;;1904437;75;21203;-87
2022/06/25 06:01:37;;;;;;;1.60;0.60;;;19.20;99.90;;;;;;1905818;75;21126;-87
2022/06/25 06:04:29;;;;;;;1.60;0.40;;;19.20;99.90;;;;;;1933400;74;21099;-87
2022/06/25 06:07:21;;;;;;;4.17;0.60;;;19.30;99.90;;;;;;1910791;75;21168;-87
2022/06/25 06:10:16;;;;;;;1.45;0.40;;;19.40;99.90;;;;;;1927401;74;21150;-87
2022/06/25 06:13:08;;;;;;;3.00;0.75;;;19.40;99.90;;;;;;1909297;74;21081;-87
2022/06/25 06:16:00;;;;;;;0.85;0.40;;;19.50;99.90;;;;;;1908344;75;21040;-88
2022/06/25 06:18:51;;;;;;;2.33;0.60;;;19.50;99.90;;;;;;1909514;75;21070;-88
2022/06/25 06:21:43;;;;;;;0.90;0.40;;;19.50;99.90;;;;;;1907896;74;21048;-87
2022/06/25 06:24:34;;;;;;;1.47;0.50;;;19.60;99.90;;;;;;1897251;75;21052;-88
2022/06/25 06:27:26;;;;;;;0.70;0.50;;;19.70;99.90;;;;;;1910698;75;21099;-87
2022/06/25 06:30:19;;;;;;;1.90;0.50;;;19.80;99.90;;;;;;1911689;75;21577;-88
2022/06/25 06:33:10;;;;;;;1.42;0.40;;;19.90;99.90;;;;;;1913633;75;21126;-88
2022/06/25 06:36:01;;;;;;;2.15;0.60;;;19.90;99.90;;;;;;1886229;75;21125;-88
2022/06/25 06:38:54;;;;;;;1.30;0.50;;;20.00;99.90;;;;;;1908517;75;21124;-87
2022/06/25 06:41:46;;;;;;;0.78;0.50;;;20.10;99.90;;;;;;1933438;74;21098;-88
2022/06/25 06:44:39;;;;;;;0.95;0.60;;;20.10;99.90;;;;;;1933049;74;21121;-87
2022/06/25 06:47:30;;;;;;;1.70;0.70;;;20.20;99.90;;;;;;1910823;74;21063;-88
2022/06/25 06:53:05;;;;;;;1.90;0.88;;;20.20;99.90;;;;;;1948182;72;22192;-87
2022/06/25 06:56:15;;;;;;;2.47;0.75;;;20.30;99.90;;;;;;1917660;75;21086;-87
2022/06/25 06:59:25;;;;;;;1.12;0.70;;;20.30;99.90;;;;;;1940334;73;21063;-87
2022/06/25 07:02:18;;;;;;;1.82;0.60;;;20.40;99.90;;;;;;1900311;75;21067;-87
2022/06/25 07:05:28;;;;;;;2.55;0.60;;;20.50;99.90;;;;;;1936632;73;21168;-87
2022/06/25 07:08:19;;;;;;;1.25;0.60;;;20.60;99.90;;;;;;1937870;73;21102;-87
2022/06/25 07:11:29;;;;;;;2.95;0.70;;;20.70;99.90;;;;;;1917302;75;21093;-87
2022/06/25 07:14:24;;;;;;;2.15;0.60;;;20.80;99.90;;;;;;1947042;73;21054;-87
2022/06/25 07:17:14;;;;;;;0.68;0.60;;;20.90;99.90;;;;;;1926331;73;21093;-87
2022/06/25 07:20:08;;;;;;;1.15;0.80;;;20.90;99.90;;;;;;1918162;75;21096;-88
2022/06/25 07:23:00;;;;;;;1.25;0.60;;;21.00;99.90;;;;;;1917768;75;21056;-88
2022/06/25 07:25:52;;;;;;;0.75;0.60;;;21.10;99.90;;;;;;1926782;73;21133;-87
2022/06/25 07:28:43;;;;;;;0.60;0.60;;;21.20;99.90;;;;;;1925717;73;21053;-87
2022/06/25 07:31:35;;;;;;;5.33;1.00;;;21.30;99.90;;;;;;1917674;75;21068;-87
2022/06/25 07:34:27;;;;;;;1.75;0.60;;;21.30;99.90;;;;;;1917727;75;21192;-87
2022/06/25 07:37:18;;;;;;;1.20;0.55;;;21.30;99.90;;;;;;1940325;73;21175;-88
2022/06/25 07:40:13;;;;;;;1.15;0.68;;;21.40;99.90;;;;;;1917650;75;21063;-88
2022/06/25 07:43:04;;;;;;;0.95;0.50;;;21.50;99.90;;;;;;1917903;75;21114;-87
2022/06/25 07:45:56;;;;;;;1.15;0.60;;;21.60;99.90;;;;;;1917743;75;21048;-86
2022/06/25 07:48:47;;;;;;;2.65;0.72;;;21.60;99.90;;;;;;1917386;75;21086;-86
2022/06/25 07:51:57;;;;;;;1.50;0.60;;;21.70;99.90;;;;;;1917433;74;21086;-86
2022/06/25 07:54:49;;;;;;;1.22;0.60;;;21.80;99.90;;;;;;1923377;73;21078;-86
2022/06/25 07:57:42;;;;;;;1.37;0.72;;;21.80;99.90;;;;;;1928341;73;21124;-86
2022/06/25 08:00:33;;;;;;;2.10;0.80;;;21.90;99.90;;;;;;1917675;75;21117;-86
2022/06/25 08:03:25;;;;;;;3.20;1.00;;;21.90;99.90;;;;;;1917512;75;21110;-86
2022/06/25 08:06:18;;;;;;;5.55;0.93;;;22.00;99.90;;;;;;1911680;74;21102;-86
2022/06/25 08:09:10;;;;;;;0.78;0.60;;;22.00;99.90;;;;;;1913895;74;21135;-87
2022/06/25 08:12:01;;;;;;;0.60;0.57;;;21.90;99.90;;;;;;1917262;75;21055;-87
2022/06/25 08:14:53;;;;;;;2.70;0.75;;;22.00;99.90;;;;;;1930598;73;21138;-87
2022/06/25 08:17:45;;;;;;;1.35;0.55;;;22.20;99.90;;;;;;1919814;73;21139;-86
2022/06/25 08:20:49;;;;;;;1.80;0.70;;;22.30;99.90;;;;;;1929889;74;21273;-87
2022/06/25 08:23:45;;;;;;;0.72;0.50;;;22.40;99.90;;;;;;1914899;74;21063;-88
2022/06/25 08:26:37;;;;;;;2.22;0.70;;;22.40;99.90;;;;;;1904587;75;21115;-89
2022/06/25 08:29:28;;;;;;;1.67;0.60;;;22.60;99.90;;;;;;1917460;74;21636;-87
2022/06/25 08:32:20;;;;;;;0.80;0.60;;;22.60;99.90;;;;;;1908200;74;21039;-87
2022/06/25 08:35:12;;;;;;;2.47;0.72;;;22.50;99.90;;;;;;1939417;73;21599;-86
2022/06/25 08:38:04;;;;;;;1.27;0.60;;;22.70;99.90;;;;;;1904689;75;21152;-87
2022/06/25 08:40:59;;;;;;;0.72;0.60;;;22.70;99.90;;;;;;1904669;75;21099;-87
2022/06/25 08:43:53;;;;;;;1.47;0.65;;;22.80;99.90;;;;;;1926880;74;21161;-87
2022/06/25 08:46:45;;;;;;;0.60;0.50;;;22.90;99.90;;;;;;1917203;75;21093;-87
2022/06/25 08:49:40;;;;;;;2.45;0.60;;;23.10;99.90;;;;;;1927706;74;21114;-87
2022/06/25 08:52:34;;;;;;;1.32;0.60;;;23.20;99.90;;;;;;1916988;74;21050;-87
2022/06/25 08:55:33;;;;;;;2.33;0.70;;;23.20;99.90;;;;;;1930298;73;21574;-87
2022/06/25 08:58:25;;;;;;;1.02;0.50;;;23.30;99.90;;;;;;1918872;73;21068;-86
2022/06/25 09:01:18;;;;;;;1.95;1.10;;;23.40;99.90;;;;;;1922988;73;21094;-87
2022/06/25 09:04:10;;;;;;;1.57;1.00;;;23.50;99.90;;;;;;1949400;73;21046;-87
2022/06/25 09:07:19;;;;;;;1.47;0.55;;;23.70;99.90;;;;;;1917230;75;21109;-87
2022/06/25 09:10:29;;;;;;;2.12;0.80;;;23.80;99.90;;;;;;1916515;75;21291;-88
2022/06/25 09:13:25;;;;;;;1.27;0.50;;;23.70;99.90;;;;;;1933268;73;21094;-86
2022/06/25 09:16:26;;;;;;;0.78;0.53;;;23.90;99.90;;;;;;1916776;75;21098;-86
2022/06/25 09:19:28;;;;;;;1.30;1.00;;;24.00;99.90;;;;;;1917023;75;21114;-87
2022/06/25 09:22:22;;;;;;;0.70;0.50;;;24.20;99.90;;;;;;1917617;75;21165;-86
2022/06/25 09:25:14;;;;;;;0.70;0.70;;;24.20;99.90;;;;;;1939908;73;21059;-87
2022/06/25 09:28:06;;;;;;;0.95;0.60;;;24.40;99.90;;;;;;1934707;73;21161;-88
2022/06/25 09:30:58;;;;;;;1.47;0.50;;;24.40;99.90;;;;;;1916852;75;21589;-86
2022/06/25 09:33:50;;;;;;;0.65;0.50;;;24.50;99.90;;;;;;1916825;75;21125;-87
2022/06/25 09:36:44;;;;;;;2.92;0.60;;;24.50;99.90;;;;;;1916689;73;21147;-87
2022/06/25 09:39:43;;;;;;;1.20;0.53;;;24.60;99.90;;;;;;1917236;75;21111;-87
2022/06/25 09:42:35;;;;;;;0.82;0.53;;;24.80;99.90;;;;;;1926702;74;21153;-86
2022/06/25 09:45:27;;;;;;;1.25;0.57;;;25.00;99.90;;;;;;1939681;73;21118;-87
2022/06/25 09:48:24;;;;;;;1.70;0.60;;;25.10;99.90;;;;;;1916917;75;21128;-88
2022/06/25 09:51:18;;;;;;;3.72;0.60;;;25.10;99.90;;;;;;1917128;75;21130;-87
2022/06/25 09:54:11;;;;;;;4.05;0.60;;;25.10;99.90;;;;;;1920204;74;21121;-87
2022/06/25 09:57:04;;;;;;;1.65;0.53;;;25.30;99.90;;;;;;1926755;74;21136;-87
2022/06/25 09:59:58;;;;;;;1.10;0.50;;;25.50;99.90;;;;;;1926743;74;21120;-87
2022/06/25 10:02:51;;;;;;;1.42;0.50;;;25.70;99.90;;;;;;1926673;74;21106;-87
2022/06/25 10:05:44;;;;;;;0.95;0.60;;;25.70;99.90;;;;;;1949034;73;21043;-88
2022/06/25 10:08:38;;;;;;;0.65;0.60;;;26.00;99.90;;;;;;1942919;73;21070;-87
2022/06/25 10:11:31;;;;;;;1.05;0.60;;;26.10;99.90;;;;;;1926516;74;21179;-86
2022/06/25 10:14:25;;;;;;;1.22;0.62;;;26.30;99.90;;;;;;1879912;76;21162;-86
2022/06/25 10:17:17;;;;;;;0.60;0.60;;;26.30;99.90;;;;;;1916954;75;21066;-86
2022/06/25 10:20:12;;;;;;;0.90;0.60;;;26.20;99.90;;;;;;1916847;75;21149;-86
2022/06/25 10:23:07;;;;;;;1.75;0.78;;;26.20;99.90;;;;;;1916966;75;21152;-87
2022/06/25 10:25:59;;;;;;;1.07;0.60;;;26.20;99.90;;;;;;1916860;75;21124;-87
2022/06/25 10:28:51;;;;;;;0.60;0.60;;;26.20;99.90;;;;;;1923267;73;21027;-87
2022/06/25 10:31:43;;;;;;;2.15;0.50;;;26.30;99.90;;;;;;1927818;73;21110;-87
2022/06/25 10:34:35;;;;;;;3.55;0.70;;;26.40;99.90;;;;;;1916957;75;21058;-87
2022/06/25 10:40:10;;;;;;;0.68;0.68;;;26.50;99.90;;;;;;1941052;72;22226;-86
2022/06/25 10:43:44;;;;;;;1.67;0.65;;;26.50;99.90;;;;;;1894250;75;21495;-86
2022/06/25 10:49:47;;;;;;;0.78;0.50;;;26.50;99.90;;;;;;1952548;72;22147;-86
2022/06/25 10:53:20;;;;;;;1.00;0.65;;;26.50;99.90;;;;;;1948728;73;21039;-87
2022/06/25 10:56:36;;;;;;;3.35;0.70;;;26.30;99.90;;;;;;1924583;73;21208;-87
2022/06/25 10:59:46;;;;;;;1.45;0.68;;;26.20;99.90;;;;;;1948634;73;21082;-88
2022/06/25 11:02:56;;;;;;;5.05;1.15;;;26.30;99.90;;;;;;1917853;75;21101;-88
2022/06/25 11:05:48;;;;;;;0.50;0.50;;;26.50;99.90;;;;;;1941812;73;21042;-88
2022/06/25 11:08:42;;;;;;;2.02;0.80;;;26.70;99.90;;;;;;1951780;73;21468;-88
2022/06/25 11:11:35;;;;;;;1.37;0.57;;;26.70;99.90;;;;;;1917456;75;21176;-87
2022/06/25 11:14:26;;;;;;;1.12;0.75;;;26.70;99.90;;;;;;1917420;75;21159;-89
2022/06/25 11:17:18;;;;;;;2.37;0.70;;;26.80;99.90;;;;;;1917783;75;21142;-88
2022/06/25 11:20:13;;;;;;;3.85;0.68;;;27.00;99.90;;;;;;1917766;75;21130;-86
2022/06/25 11:23:05;;;;;;;1.12;0.50;;;27.00;99.90;;;;;;1917536;75;21734;-89
2022/06/25 11:29:15;;;;;;;1.12;0.70;;;27.10;99.90;;;;;;1917794;75;21125;-86
2022/06/25 11:32:10;;;;;;;0.60;0.60;;;27.30;99.90;;;;;;1917913;75;21107;-87
2022/06/25 11:35:03;;;;;;;0.60;0.50;;;27.30;99.90;;;;;;1917388;75;21722;-88
2022/06/25 11:37:55;;;;;;;0.82;0.50;;;27.20;99.90;;;;;;1917722;75;21054;-88
2022/06/25 11:40:47;;;;;;;0.72;0.50;;;27.20;99.90;;;;;;1917488;75;21101;-87
2022/06/25 11:43:41;;;;;;;1.57;0.70;;;27.10;99.90;;;;;;1917815;75;21063;-88
2022/06/25 11:46:36;;;;;;;0.50;0.50;;;27.30;99.90;;;;;;1917660;75;21065;-88
2022/06/25 11:49:36;;;;;;;0.70;0.50;;;27.40;99.90;;;;;;1917607;75;21092;-88
2022/06/25 11:52:29;;;;;;;0.82;0.62;;;27.50;99.90;;;;;;1905522;75;21106;-86
2022/06/25 11:55:21;;;;;;;1.07;0.47;;;27.60;99.90;;;;;;1918733;74;21529;-86
2022/06/25 11:58:14;;;;;;;0.70;0.60;;;27.50;99.90;;;;;;1907771;74;21047;-86
2022/06/25 12:01:07;;;;;;;1.92;0.40;;;27.80;99.90;;;;;;1904875;75;21059;-86
2022/06/25 12:04:02;;;;;;;0.42;0.42;;;27.90;99.90;;;;;;1926126;74;21110;-86
2022/06/25 12:06:54;;;;;;;3.10;0.40;;;27.90;99.90;;;;;;1917030;73;21088;-86
2022/06/25 12:09:47;;;;;;;1.35;0.40;;;28.00;99.90;;;;;;1917016;75;21150;-86
2022/06/25 12:12:41;;;;;;;0.88;0.40;;;27.80;99.90;;;;;;1923163;73;21047;-86
2022/06/25 12:15:33;;;;;;;0.53;0.33;;;27.60;99.90;;;;;;1937817;74;21102;-85
2022/06/25 12:18:36;;;;;;;0.47;0.45;;;27.80;99.90;;;;;;1951128;73;21031;-88
2022/06/25 12:21:29;;;;;;;0.55;0.50;;;27.90;99.90;;;;;;1933635;73;21121;-86
2022/06/25 12:24:21;;;;;;;2.00;0.80;;;27.90;99.90;;;;;;1939205;73;21109;-85
2022/06/25 12:27:13;;;;;;;0.65;0.50;;;28.00;99.90;;;;;;1923203;73;21055;-86
2022/06/25 12:30:07;;;;;;;0.60;0.50;;;28.20;99.90;;;;;;1915456;74;21083;-86
2022/06/25 12:33:09;;;;;;;1.65;0.42;;;28.20;99.90;;;;;;1931750;73;21059;-86
2022/06/25 12:38:43;;;;;;;1.02;0.50;;;28.10;99.90;;;;;;1945634;72;22738;-86
2022/06/25 12:41:53;;;;;;;0.57;0.40;;;27.90;99.90;;;;;;1913787;75;21470;-85
2022/06/25 12:45:06;;;;;;;2.10;0.50;;;27.90;99.90;;;;;;1895729;75;21169;-85
2022/06/25 12:47:58;;;;;;;1.57;0.47;;;27.90;99.90;;;;;;1895677;75;21173;-85
2022/06/25 12:51:13;;;;;;;1.75;0.50;;;27.90;99.90;;;;;;1895630;75;21121;-85
2022/06/25 12:54:05;;;;;;;1.47;0.45;;;27.90;99.90;;;;;;1898944;75;21137;-85
2022/06/25 12:56:57;;;;;;;1.05;0.50;;;27.90;99.90;;;;;;1898209;75;21044;-85
2022/06/25 12:59:50;;;;;;;0.50;0.50;;;28.20;99.90;;;;;;1909238;75;21070;-86
2022/06/25 13:02:42;;;;;;;0.88;0.50;;;28.40;99.90;;;;;;1907027;75;21063;-85
2022/06/25 13:05:36;;;;;;;0.72;0.50;;;28.50;99.90;;;;;;1884731;76;21138;-85
2022/06/25 13:08:27;;;;;;;2.37;0.45;;;28.60;99.90;;;;;;1899698;75;21083;-85
2022/06/25 13:11:20;;;;;;;0.72;0.50;;;28.60;99.90;;;;;;1885451;75;21059;-88
2022/06/25 13:14:12;;;;;;;1.50;0.60;;;28.70;99.90;;;;;;1884973;76;21518;-89
2022/06/25 13:17:04;;;;;;;1.10;0.50;;;28.60;99.90;;;;;;1906689;75;21120;-85
2022/06/25 13:19:56;;;;;;;2.12;0.68;;;28.80;99.90;;;;;;1901003;75;21090;-86
2022/06/25 13:22:48;;;;;;;1.07;0.60;;;28.80;99.90;;;;;;1884876;76;21066;-86
2022/06/25 13:25:40;;;;;;;0.88;0.50;;;28.80;99.90;;;;;;1906675;75;21059;-85
2022/06/25 13:28:33;;;;;;;1.45;0.75;;;29.00;99.90;;;;;;1906777;75;21088;-86
2022/06/25 13:31:24;;;;;;;0.93;0.60;;;28.90;99.90;;;;;;1903919;75;21116;-86
2022/06/25 13:34:16;;;;;;;0.45;0.40;;;29.00;99.90;;;;;;1899056;75;21114;-86
2022/06/25 13:37:08;;;;;;;0.37;0.37;;;29.00;99.90;;;;;;1895414;75;21170;-86
2022/06/25 13:40:00;;;;;;;1.65;0.53;;;29.10;99.90;;;;;;1860928;76;21104;-86
2022/06/25 13:42:51;;;;;;;1.65;0.60;;;29.10;99.90;;;;;;1862232;76;21136;-86
2022/06/25 13:45:43;;;;;;;1.47;0.60;;;29.40;99.90;;;;;;1865092;76;21085;-86
2022/06/25 13:48:35;;;;;;;2.75;0.68;;;29.80;99.90;;;;;;1851003;76;21149;-86
2022/06/25 13:51:26;;;;;;;3.00;0.78;;;30.00;99.90;;;;;;1850113;76;21108;-86
2022/06/25 13:54:19;;;;;;;2.90;0.50;;;30.00;99.90;;;;;;1849876;76;21147;-86
2022/06/25 13:57:11;;;;;;;1.40;0.60;;;29.80;99.90;;;;;;1865318;76;21136;-85
2022/06/25 14:00:02;;;;;;;1.12;0.57;;;29.40;99.90;;;;;;1850178;76;21065;-87
2022/06/25 14:02:56;;;;;;;0.70;0.60;;;29.40;99.90;;;;;;1849877;77;21104;-86
2022/06/25 14:05:48;;;;;;;0.70;0.60;;;29.40;99.90;;;;;;1870994;76;21123;-86
2022/06/25 14:08:39;;;;;;;1.40;0.55;;;30.20;99.90;;;;;;1866800;76;21596;-86
2022/06/25 14:11:31;;;;;;;0.53;0.53;;;30.80;99.90;;;;;;1861584;76;21116;-86
2022/06/25 14:14:22;;;;;;;1.27;0.60;;;30.60;99.90;;;;;;1860501;76;21116;-86
2022/06/25 14:17:14;;;;;;;0.78;0.50;;;30.10;99.90;;;;;;1860277;76;21186;-86
2022/06/25 14:20:09;;;;;;;1.12;0.62;;;29.80;99.90;;;;;;1862790;76;21180;-86
2022/06/25 14:23:00;;;;;;;1.30;0.65;;;29.60;99.90;;;;;;1863978;76;21737;-86
2022/06/25 14:25:53;;;;;;;0.68;0.60;;;29.70;99.90;;;;;;1850863;76;21064;-86
2022/06/25 14:28:45;;;;;;;2.65;0.80;;;30.50;99.90;;;;;;1870878;76;21145;-86
2022/06/25 14:34:17;;;;;;;1.45;0.50;;;31.10;99.90;;;;;;1976233;72;22637;-86
2022/06/25 14:44:06;;;;;;;0.50;0.50;;;31.60;99.90;;;;;;1935787;73;21120;-85
2022/06/25 14:47:19;;;;;;;0.78;0.45;;;31.70;99.90;;;;;;1882195;76;21056;-86
2022/06/25 14:50:12;;;;;;;2.77;0.70;;;31.40;99.90;;;;;;1917713;74;21090;-85
2022/06/25 14:53:06;;;;;;;2.02;1.22;;;30.80;99.90;;;;;;1940119;73;21075;-85
2022/06/25 14:55:59;;;;;;;0.98;0.60;;;30.50;99.90;;;;;;1917705;74;21613;-86
2022/06/25 14:58:51;;;;;;;2.40;0.57;;;30.20;99.90;;;;;;1917640;75;21125;-85
2022/06/25 15:01:42;;;;;;;1.40;0.60;;;29.90;99.90;;;;;;1929671;73;21167;-85
2022/06/25 15:04:34;;;;;;;1.45;0.70;;;29.80;99.90;;;;;;1922338;73;21051;-88
2022/06/25 15:07:27;;;;;;;2.42;0.60;;;31.10;99.90;;;;;;1918096;75;21561;-89
2022/06/25 15:10:20;;;;;;;1.42;0.60;;;32.40;99.90;;;;;;1917866;75;21188;-89
2022/06/25 15:13:12;;;;;;;1.40;0.70;;;32.10;99.90;;;;;;1931231;73;21188;-88
2022/06/25 15:16:04;;;;;;;1.65;0.75;;;31.40;99.90;;;;;;1920910;73;21055;-88
2022/06/25 15:18:56;;;;;;;1.92;0.80;;;30.90;99.90;;;;;;1917912;75;21090;-88
2022/06/25 15:21:53;;;;;;;2.40;0.70;;;30.30;99.90;;;;;;1882826;76;21143;-88
2022/06/25 15:24:45;;;;;;;1.40;0.80;;;30.10;99.90;;;;;;1917797;75;21492;-88
2022/06/25 15:27:36;;;;;;;0.70;0.70;;;30.10;99.90;;;;;;1917693;73;21060;-85
2022/06/25 15:30:28;;;;;;;1.20;0.70;;;30.10;99.90;;;;;;1917811;75;21094;-86
2022/06/25 15:33:19;;;;;;;3.40;0.70;;;30.80;99.90;;;;;;1920697;74;21066;-86
2022/06/25 15:36:12;;;;;;;0.80;0.60;;;31.40;99.90;;;;;;1912310;75;21055;-86
2022/06/25 15:39:04;;;;;;;3.45;0.60;;;32.40;99.90;;;;;;1920630;74;21152;-87